createdAt,value
2023-01-20T00:01:47.908Z,32.97
2023-01-20T00:04:19.407Z,39.27
2023-01-20T00:06:47.038Z,39.07
2023-01-20T00:09:17.135Z,41.73
2023-01-20T00:11:44.872Z,38.97
2023-01-20T00:14:12.580Z,47.43
2023-01-20T00:16:39.936Z,42.77
2023-01-20T00:19:07.221Z,50.33
2023-01-20T00:21:35.199Z,36.83
2023-01-20T00:24:02.582Z,34.27
2023-01-20T00:26:29.898Z,37.73
2023-01-20T00:29:00.273Z,37.37
2023-01-20T00:31:31.396Z,39.50
2023-01-20T00:34:00.658Z,38.03
2023-01-20T00:36:34.202Z,33.13
2023-01-20T00:39:03.284Z,35.37
2023-01-20T00:41:30.953Z,34.13
2023-01-20T00:43:58.264Z,36.47
2023-01-20T00:46:25.646Z,32.90
2023-01-20T00:48:53.179Z,39.37
2023-01-20T00:51:20.472Z,38.10
2023-01-20T00:53:47.843Z,39.33
2023-01-20T00:56:15.690Z,39.83
2023-01-20T00:58:44.695Z,36.77
2023-01-20T01:01:12.858Z,38.73
2023-01-20T01:03:40.265Z,33.63
2023-01-20T01:06:14.876Z,37.30
2023-01-20T01:08:43.699Z,36.63
2023-01-20T01:11:12.531Z,31.97
2023-01-20T01:13:42.341Z,31.33
2023-01-20T01:16:15.620Z,39.17
2023-01-20T01:18:45.816Z,31.27
2023-01-20T01:21:16.846Z,29.08
2023-01-20T01:23:44.688Z,31.57
2023-01-20T01:26:12.609Z,32.70
2023-01-20T01:28:40.064Z,33.73
2023-01-20T01:31:09.702Z,34.90
2023-01-20T01:33:37.104Z,27.83
2023-01-20T01:36:12.247Z,29.87
2023-01-20T01:38:42.802Z,29.13
2023-01-20T01:41:14.590Z,29.02
2023-01-20T01:44:01.942Z,29.63
2023-01-20T01:46:29.246Z,31.00
2023-01-20T01:48:59.502Z,27.77
2023-01-20T01:51:35.123Z,28.38
2023-01-20T01:54:13.833Z,31.40
2023-01-20T01:56:42.581Z,24.73
2023-01-20T01:59:11.295Z,28.90
2023-01-20T02:01:42.941Z,24.13
2023-01-20T02:04:21.145Z,23.77
2023-01-20T02:07:11.775Z,22.33
2023-01-20T02:09:39.190Z,23.48
2023-01-20T02:12:14.373Z,20.43
2023-01-20T02:14:53.067Z,21.53
2023-01-20T02:17:48.097Z,17.03
2023-01-20T02:20:59.806Z,19.30
2023-01-20T02:24:19.012Z,26.63
2023-01-20T02:27:14.621Z,18.90
2023-01-20T02:30:36.458Z,15.07
2023-01-20T02:33:52.431Z,17.53
2023-01-20T02:36:39.368Z,16.67
2023-01-20T02:39:45.906Z,16.13
2023-01-20T02:42:53.208Z,14.83
2023-01-20T02:45:28.429Z,10.90
2023-01-20T02:48:30.884Z,17.00
2023-01-20T02:51:25.708Z,16.40
2023-01-20T02:54:01.944Z,13.57
2023-01-20T02:56:31.847Z,14.17
2023-01-20T02:59:24.283Z,14.93
2023-01-20T03:02:02.682Z,17.93
2023-01-20T03:04:38.624Z,11.97
2023-01-20T03:07:08.102Z,21.97
2023-01-20T03:09:47.636Z,14.63
2023-01-20T03:12:30.976Z,24.60
2023-01-20T03:14:58.383Z,19.53
2023-01-20T03:17:26.086Z,20.90
2023-01-20T03:19:53.553Z,16.40
2023-01-20T03:22:20.822Z,18.53
2023-01-20T03:24:48.794Z,17.43
2023-01-20T03:27:16.095Z,15.30
2023-01-20T03:29:45.921Z,19.70
2023-01-20T03:32:14.441Z,18.95
2023-01-20T03:34:44.187Z,20.87
2023-01-20T03:37:12.639Z,27.98
2023-01-20T03:39:40.600Z,18.87
2023-01-20T03:42:29.530Z,17.20
2023-01-20T03:45:28.666Z,16.53
2023-01-20T03:48:18.815Z,20.10
2023-01-20T03:51:01.957Z,16.02
2023-01-20T03:53:48.768Z,14.63
2023-01-20T03:56:26.111Z,13.43
2023-01-20T03:59:00.944Z,17.92
2023-01-20T04:01:39.478Z,17.80
2023-01-20T04:04:14.531Z,14.00
2023-01-20T04:06:43.857Z,18.17
2023-01-20T04:09:31.826Z,12.73
2023-01-20T04:11:59.749Z,15.50
2023-01-20T04:14:26.891Z,17.73
2023-01-20T04:16:57.741Z,15.57
2023-01-20T04:19:26.411Z,16.77
2023-01-20T04:22:14.535Z,13.33
2023-01-20T04:25:14.049Z,13.57
2023-01-20T04:27:41.456Z,11.77
2023-01-20T04:30:13.301Z,10.87
2023-01-20T04:32:40.609Z,15.67
2023-01-20T04:35:09.759Z,14.90
2023-01-20T04:37:37.018Z,10.27
2023-01-20T04:40:04.655Z,13.10
2023-01-20T04:42:31.880Z,16.43
2023-01-20T04:44:59.331Z,15.80
2023-01-20T04:47:29.529Z,15.73
2023-01-20T04:49:59.035Z,18.77
2023-01-20T04:52:26.276Z,22.70
2023-01-20T04:54:53.520Z,24.60
2023-01-20T04:57:20.705Z,23.97
2023-01-20T04:59:47.971Z,23.53
2023-01-20T05:02:15.252Z,24.83
2023-01-20T05:04:42.657Z,23.90
2023-01-20T05:07:12.267Z,24.97
2023-01-20T05:09:39.448Z,25.97
2023-01-20T05:12:06.896Z,25.60
2023-01-20T05:14:34.151Z,27.50
2023-01-20T05:17:01.422Z,28.03
2023-01-20T05:19:28.655Z,30.07
2023-01-20T05:21:55.970Z,22.90
2023-01-20T05:24:23.406Z,26.37
2023-01-20T05:26:50.748Z,27.90
2023-01-20T05:29:18.030Z,27.37
2023-01-20T05:31:45.252Z,24.17
2023-01-20T05:34:12.521Z,25.20
2023-01-20T05:36:39.684Z,27.37
2023-01-20T05:39:07.079Z,24.23
2023-01-20T05:41:34.375Z,24.17
2023-01-20T05:44:01.726Z,27.43
2023-01-20T05:46:29.040Z,26.13
2023-01-20T05:48:56.293Z,33.27
2023-01-20T05:51:23.706Z,32.03
2023-01-20T05:53:51.001Z,33.23
2023-01-20T05:56:18.164Z,31.60
2023-01-20T05:58:45.397Z,26.33
2023-01-20T06:01:14.939Z,27.23
2023-01-20T06:03:42.574Z,35.50
2023-01-20T06:06:15.716Z,32.23
2023-01-20T06:08:43.082Z,33.77
2023-01-20T06:11:11.572Z,38.73
2023-01-20T06:13:39.704Z,35.20
2023-01-20T06:16:07.702Z,43.73
2023-01-20T06:18:35.538Z,36.10
2023-01-20T06:21:02.788Z,35.73
2023-01-20T06:23:32.895Z,33.17
2023-01-20T06:26:07.091Z,36.47
2023-01-20T06:28:34.942Z,38.70
2023-01-20T06:31:13.671Z,34.07
2023-01-20T06:33:41.771Z,31.70
2023-01-20T06:36:11.047Z,33.33
2023-01-20T06:38:38.234Z,35.43
2023-01-20T06:41:10.500Z,44.50
2023-01-20T06:43:42.035Z,54.73
2023-01-20T06:46:13.857Z,57.63
2023-01-20T06:48:42.661Z,58.07
2023-01-20T06:51:20.728Z,54.03
2023-01-20T06:53:48.328Z,51.67
2023-01-20T06:56:16.258Z,50.40
2023-01-20T06:58:44.978Z,47.23
2023-01-20T07:01:22.767Z,57.33
2023-01-20T07:03:50.242Z,49.10
2023-01-20T07:06:24.899Z,52.60
2023-01-20T07:08:52.599Z,52.47
2023-01-20T07:11:20.170Z,58.53
2023-01-20T07:13:47.569Z,53.70
2023-01-20T07:16:16.117Z,69.43
2023-01-20T07:18:49.893Z,70.20
2023-01-20T07:21:20.774Z,67.07
2023-01-20T07:23:48.955Z,67.97
2023-01-20T07:26:22.586Z,66.67
2023-01-20T07:28:50.376Z,75.80
2023-01-20T07:31:23.907Z,91.13
2023-01-20T07:33:51.702Z,79.63
2023-01-20T07:36:19.402Z,83.80
2023-01-20T07:38:50.920Z,82.80
2023-01-20T07:41:20.002Z,77.43
2023-01-20T07:43:50.279Z,75.03
2023-01-20T07:46:18.065Z,81.63
2023-01-20T07:48:45.528Z,72.27
2023-01-20T07:51:15.705Z,73.57
2023-01-20T07:53:47.105Z,79.63
2023-01-20T07:56:21.855Z,66.80
2023-01-20T07:58:50.767Z,75.67
2023-01-20T08:01:27.053Z,83.83
2023-01-20T08:03:54.962Z,81.87
2023-01-20T08:06:25.574Z,90.90
2023-01-20T08:08:53.899Z,85.90
2023-01-20T08:11:22.813Z,95.33
2023-01-20T08:13:50.360Z,91.43
2023-01-20T08:16:19.244Z,104.77
2023-01-20T08:18:47.518Z,99.43
2023-01-20T08:21:24.719Z,102.27
2023-01-20T08:23:52.514Z,99.83
2023-01-20T08:26:21.147Z,96.90
2023-01-20T08:28:48.585Z,98.30
2023-01-20T08:31:20.383Z,101.87
2023-01-20T08:33:52.456Z,79.57
2023-01-20T08:36:27.625Z,100.23
2023-01-20T08:38:57.295Z,90.10
2023-01-20T08:41:32.834Z,83.07
2023-01-20T08:44:02.983Z,78.47
2023-01-20T08:46:30.502Z,74.53
2023-01-20T08:48:58.099Z,78.43
2023-01-20T08:51:32.980Z,80.27
2023-01-20T08:54:01.084Z,75.17
2023-01-20T08:56:29.663Z,84.03
2023-01-20T08:59:00.428Z,76.60
2023-01-20T09:04:05.710Z,85.67
2023-01-20T09:06:53.955Z,79.27
2023-01-20T09:09:22.583Z,96.57
2023-01-20T09:11:52.978Z,85.33
2023-01-20T09:14:22.599Z,89.47
2023-01-20T09:16:50.069Z,81.80
2023-01-20T09:19:17.811Z,96.93
2023-01-20T09:21:45.252Z,100.87
2023-01-20T09:24:12.559Z,103.03
2023-01-20T09:26:39.852Z,121.57
2023-01-20T09:29:21.389Z,104.53
2023-01-20T09:31:53.953Z,104.27
2023-01-20T09:34:21.598Z,91.43
2023-01-20T09:37:19.435Z,94.00
2023-01-20T09:40:05.601Z,104.60
2023-01-20T09:43:24.792Z,135.53
2023-01-20T09:46:38.603Z,123.63
2023-01-20T09:50:03.772Z,104.83
2023-01-20T09:52:57.291Z,105.60
2023-01-20T09:55:46.541Z,114.30
2023-01-20T09:58:23.001Z,144.97
2023-01-20T10:00:58.010Z,116.13
2023-01-20T10:03:42.248Z,108.93
2023-01-20T10:06:44.766Z,114.00
2023-01-20T10:09:42.185Z,129.00
2023-01-20T10:12:35.611Z,111.40
2023-01-20T10:15:15.661Z,118.17
2023-01-20T10:17:45.735Z,120.28
2023-01-20T10:20:41.558Z,120.13
2023-01-20T10:23:21.942Z,120.53
2023-01-20T10:26:03.355Z,121.25
2023-01-20T10:28:37.954Z,132.13
2023-01-20T10:31:06.265Z,142.13
2023-01-20T10:33:43.383Z,130.30
2023-01-20T10:36:30.094Z,131.03
2023-01-20T10:39:33.683Z,154.40
2023-01-20T10:42:14.392Z,117.60
2023-01-20T10:44:50.654Z,121.90
2023-01-20T10:47:39.458Z,108.60
2023-01-20T10:50:54.133Z,107.97
2023-01-20T10:53:27.025Z,101.70
2023-01-20T10:56:18.388Z,98.33
2023-01-20T10:58:47.649Z,101.23
2023-01-20T11:01:21.704Z,91.17
2023-01-20T11:03:49.906Z,95.00
2023-01-20T11:06:28.548Z,95.60
2023-01-20T11:08:57.315Z,89.30
2023-01-20T11:11:25.877Z,90.00
2023-01-20T11:13:57.567Z,78.03
2023-01-20T11:16:29.147Z,92.90
2023-01-20T11:19:02.998Z,64.50
2023-01-20T11:21:37.186Z,72.10
2023-01-20T11:24:41.598Z,69.40
2023-01-20T11:27:20.209Z,65.83
2023-01-20T11:29:53.001Z,72.57
2023-01-20T11:32:42.098Z,70.47
2023-01-20T11:35:25.536Z,66.23
2023-01-20T11:37:53.153Z,69.40
2023-01-20T11:40:20.457Z,70.20
2023-01-20T11:42:50.843Z,68.43
2023-01-20T11:45:35.610Z,63.58
2023-01-20T11:48:15.205Z,70.87
2023-01-20T11:50:50.574Z,67.75
2023-01-20T11:53:26.610Z,68.82
2023-01-20T11:56:25.055Z,72.63
2023-01-20T11:59:04.391Z,65.77
2023-01-20T12:01:51.699Z,73.47
2023-01-20T12:05:07.516Z,66.87
2023-01-20T12:07:47.340Z,62.50
2023-01-20T12:10:26.354Z,75.67
2023-01-20T12:13:19.108Z,70.67
2023-01-20T12:15:53.162Z,56.80
2023-01-20T12:18:56.945Z,69.00
2023-01-20T12:21:41.858Z,57.60
2023-01-20T12:27:27.869Z,54.00
2023-01-20T12:30:02.325Z,60.13
2023-01-20T12:32:31.669Z,68.23
2023-01-20T12:35:12.729Z,63.57
2023-01-20T12:38:03.359Z,65.07
2023-01-20T12:40:55.095Z,68.25
2023-01-20T12:43:44.426Z,65.07
2023-01-20T12:46:39.434Z,70.20
2023-01-20T12:49:27.233Z,67.97
2023-01-20T12:52:29.692Z,57.87
2023-01-20T12:55:28.618Z,71.30
2023-01-20T12:58:08.416Z,63.53
2023-01-20T13:00:57.559Z,75.53
2023-01-20T13:04:11.469Z,75.77
2023-01-20T13:07:18.458Z,83.90
2023-01-20T13:09:57.451Z,74.60
2023-01-20T13:12:46.968Z,71.93
2023-01-20T13:15:40.769Z,75.10
2023-01-20T13:18:08.198Z,79.63
2023-01-20T13:20:41.207Z,77.87
2023-01-20T13:23:17.503Z,83.40
2023-01-20T13:25:47.462Z,77.93
2023-01-20T13:28:27.897Z,83.10
2023-01-20T13:30:58.826Z,89.18
2023-01-20T13:33:42.205Z,90.87
2023-01-20T13:36:18.640Z,89.97
2023-01-20T13:38:48.545Z,88.93
2023-01-20T13:41:49.140Z,86.17
2023-01-20T13:44:41.410Z,96.35
2023-01-20T13:47:11.196Z,98.70
2023-01-20T13:49:44.433Z,99.17
2023-01-20T13:52:12.198Z,102.97
2023-01-20T13:54:45.759Z,89.23
2023-01-20T13:57:28.007Z,85.17
2023-01-20T13:59:56.642Z,89.63
2023-01-20T14:02:28.962Z,93.50
2023-01-20T14:04:59.061Z,85.27
2023-01-20T14:07:30.563Z,89.77
2023-01-20T14:10:01.018Z,84.23
2023-01-20T14:12:28.396Z,94.80
2023-01-20T14:14:55.701Z,97.47
2023-01-20T14:17:25.039Z,97.60
2023-01-20T14:20:00.537Z,120.63
2023-01-20T14:22:31.909Z,101.83
2023-01-20T14:25:00.170Z,162.07
2023-01-20T14:27:34.158Z,108.00
2023-01-20T14:30:29.491Z,93.90
2023-01-20T14:32:56.754Z,102.13
2023-01-20T14:35:31.292Z,93.53
2023-01-20T14:37:59.851Z,95.17
2023-01-20T14:40:34.892Z,93.33
2023-01-20T14:43:20.927Z,86.53
2023-01-20T14:45:51.679Z,86.57
2023-01-20T14:51:04.411Z,72.03
2023-01-20T14:53:35.505Z,66.13
2023-01-20T14:56:22.144Z,68.97
2023-01-20T14:58:52.179Z,76.80
2023-01-20T15:01:26.783Z,65.75
2023-01-20T15:04:02.681Z,66.03
2023-01-20T15:06:30.147Z,60.93
2023-01-20T15:09:06.668Z,59.00
2023-01-20T15:11:35.741Z,61.60
2023-01-20T15:14:04.981Z,57.97
2023-01-20T15:16:44.035Z,51.83
2023-01-20T15:19:16.824Z,54.53
2023-01-20T15:21:56.638Z,75.90
2023-01-20T15:24:41.067Z,69.00
2023-01-20T15:27:28.339Z,57.40
2023-01-20T15:30:24.279Z,64.73
2023-01-20T15:32:55.490Z,65.27
2023-01-20T15:35:26.194Z,53.40
2023-01-20T15:40:25.684Z,54.67
2023-01-20T15:42:53.597Z,60.23
2023-01-20T15:45:21.105Z,66.00
2023-01-20T15:47:49.238Z,59.77
2023-01-20T15:50:22.969Z,59.77
2023-01-20T15:52:50.597Z,54.30
2023-01-20T15:55:19.564Z,64.20
2023-01-20T15:57:51.675Z,55.27
2023-01-20T16:00:23.919Z,55.70
2023-01-20T16:02:51.604Z,57.40
2023-01-20T16:05:18.921Z,60.90
2023-01-20T16:07:47.815Z,53.57
2023-01-20T16:10:19.799Z,56.10
2023-01-20T16:12:47.977Z,55.90
2023-01-20T16:15:24.457Z,71.33
2023-01-20T16:17:52.832Z,63.10
2023-01-20T16:20:26.145Z,70.37
2023-01-20T16:22:53.641Z,59.77
2023-01-20T16:25:21.613Z,73.03
2023-01-20T16:27:48.958Z,62.80
2023-01-20T16:30:19.913Z,60.10
2023-01-20T16:32:47.428Z,61.50
2023-01-20T16:35:16.854Z,70.93
2023-01-20T16:37:47.636Z,66.73
2023-01-20T16:42:48.401Z,66.20
2023-01-20T16:45:26.364Z,76.50
2023-01-20T16:47:55.153Z,61.60
2023-01-20T16:50:22.595Z,63.10
2023-01-20T16:52:52.231Z,67.50
2023-01-20T16:55:23.016Z,69.97
2023-01-20T17:00:19.207Z,68.20
2023-01-20T17:02:53.519Z,67.00
2023-01-20T17:05:25.827Z,76.00
2023-01-20T17:07:57.792Z,66.07
2023-01-20T17:10:27.932Z,75.63
2023-01-20T17:12:56.565Z,69.13
2023-01-20T17:15:24.937Z,71.17
2023-01-20T17:17:56.741Z,64.90
2023-01-20T17:20:28.095Z,61.07
2023-01-20T17:22:58.497Z,60.57
2023-01-20T17:25:26.232Z,62.72
2023-01-20T17:27:53.756Z,78.13
2023-01-20T17:30:21.379Z,71.63
2023-01-20T17:32:49.685Z,65.00
2023-01-20T17:35:17.291Z,68.73
2023-01-20T17:37:45.022Z,63.30
2023-01-20T17:40:13.769Z,61.87
2023-01-20T17:42:41.387Z,68.37
2023-01-20T17:45:12.054Z,62.20
2023-01-20T17:47:39.387Z,67.95
2023-01-20T17:50:07.084Z,60.20
2023-01-20T17:52:37.414Z,61.37
2023-01-20T17:55:05.011Z,60.28
2023-01-20T17:57:32.713Z,63.20
2023-01-20T18:00:00.041Z,60.83
2023-01-20T18:02:27.521Z,56.47
2023-01-20T18:04:54.853Z,56.33
2023-01-20T18:07:22.218Z,51.37
2023-01-20T18:09:49.637Z,59.50
2023-01-20T18:12:16.916Z,68.83
2023-01-20T18:14:45.683Z,52.97
2023-01-20T18:17:13.058Z,63.90
2023-01-20T18:19:40.373Z,66.57
2023-01-20T18:22:10.398Z,59.80
2023-01-20T18:24:38.690Z,60.00
2023-01-20T18:27:06.622Z,60.80
2023-01-20T18:29:36.219Z,55.73
2023-01-20T18:32:04.078Z,62.90
2023-01-20T18:34:31.403Z,59.97
2023-01-20T18:36:58.776Z,56.00
2023-01-20T18:39:27.008Z,59.93
2023-01-20T18:41:54.729Z,60.43
2023-01-20T18:44:23.360Z,56.90
2023-01-20T18:46:50.938Z,61.37
2023-01-20T18:49:18.996Z,51.20
2023-01-20T18:51:46.691Z,57.60
2023-01-20T18:54:18.198Z,52.83
2023-01-20T18:56:45.613Z,47.73
2023-01-20T18:59:13.329Z,58.23
2023-01-20T19:01:41.416Z,54.50
2023-01-20T19:04:12.065Z,48.23
2023-01-20T19:09:10.060Z,55.40
2023-01-20T19:11:41.014Z,44.40
2023-01-20T19:14:13.542Z,46.43
2023-01-20T19:16:45.552Z,55.53
2023-01-20T19:19:13.787Z,49.17
2023-01-20T19:21:41.597Z,46.33
2023-01-20T19:24:16.085Z,49.73
2023-01-20T19:26:43.544Z,49.40
2023-01-20T19:29:15.834Z,45.47
2023-01-20T19:31:43.464Z,50.73
2023-01-20T19:34:15.374Z,50.00
2023-01-20T19:36:42.692Z,43.43
2023-01-20T19:39:09.864Z,50.20
2023-01-20T19:41:38.905Z,54.50
2023-01-20T19:44:07.941Z,54.00
2023-01-20T19:46:39.023Z,52.53
2023-01-20T19:49:07.480Z,52.63
2023-01-20T19:51:36.415Z,49.60
2023-01-20T19:54:05.562Z,49.67
2023-01-20T19:56:35.925Z,57.50
2023-01-20T19:59:06.066Z,55.78
2023-01-20T20:01:36.766Z,52.28
2023-01-20T20:06:45.668Z,51.27
2023-01-20T20:09:21.285Z,59.40
2023-01-20T20:11:49.672Z,57.10
2023-01-20T20:14:19.640Z,58.80
2023-01-20T20:16:48.341Z,61.42
2023-01-20T20:19:20.231Z,55.10
2023-01-20T20:21:48.032Z,61.17
2023-01-20T20:24:17.992Z,56.60
2023-01-20T20:26:46.760Z,56.70
2023-01-20T20:29:16.671Z,61.97
2023-01-20T20:31:44.252Z,62.17
2023-01-20T20:34:18.259Z,56.00
2023-01-20T20:36:46.628Z,61.67
2023-01-20T20:39:18.556Z,57.17
2023-01-20T20:41:46.623Z,57.40
2023-01-20T20:44:14.504Z,56.07
2023-01-20T20:46:41.796Z,57.87
2023-01-20T20:49:15.880Z,57.20
2023-01-20T20:51:43.972Z,55.27
2023-01-20T20:54:14.110Z,54.80
2023-01-20T20:56:41.494Z,60.92
2023-01-20T20:59:09.718Z,54.03
2023-01-20T21:01:37.338Z,52.37
2023-01-20T21:04:05.932Z,52.70
2023-01-20T21:06:33.924Z,53.67
2023-01-20T21:09:01.345Z,53.70
2023-01-20T21:11:29.704Z,60.07
2023-01-20T21:13:57.296Z,55.23
2023-01-20T21:16:25.957Z,55.90
2023-01-20T21:18:56.313Z,61.33
2023-01-20T21:21:25.215Z,49.13
2023-01-20T21:23:58.157Z,51.70
2023-01-20T21:26:30.001Z,57.13
2023-01-20T21:29:02.184Z,56.93
2023-01-20T21:31:31.555Z,52.93
2023-01-20T21:34:01.144Z,52.83
2023-01-20T21:36:31.469Z,57.27
2023-01-20T21:38:59.560Z,61.78
2023-01-20T21:41:29.173Z,57.17
2023-01-20T21:44:15.128Z,50.13
2023-01-20T21:46:42.397Z,46.80
2023-01-20T21:49:30.842Z,58.97
2023-01-20T21:52:16.742Z,54.20
2023-01-20T21:54:45.480Z,45.93
2023-01-20T21:57:14.521Z,48.63
2023-01-20T21:59:41.953Z,50.03
2023-01-20T22:02:11.960Z,54.57
2023-01-20T22:04:40.079Z,56.08
2023-01-20T22:07:07.478Z,48.37
2023-01-20T22:09:34.680Z,49.53
2023-01-20T22:12:02.248Z,51.97
2023-01-20T22:14:29.899Z,51.70
2023-01-20T22:16:58.472Z,52.03
2023-01-20T22:19:25.872Z,49.67
2023-01-20T22:21:53.248Z,49.70
2023-01-20T22:24:20.519Z,43.90
2023-01-20T22:26:48.882Z,57.27
2023-01-20T22:29:17.577Z,46.53
2023-01-20T22:31:46.628Z,45.17
2023-01-20T22:34:14.101Z,49.97
2023-01-20T22:36:41.756Z,43.17
2023-01-20T22:39:12.074Z,45.17
2023-01-20T22:41:39.685Z,48.85
2023-01-20T22:44:07.705Z,48.03
2023-01-20T22:46:35.000Z,43.83
2023-01-20T22:49:02.663Z,49.67
2023-01-20T22:51:30.610Z,46.00
2023-01-20T22:54:01.318Z,45.07
2023-01-20T22:56:32.974Z,46.90
2023-01-20T22:59:01.109Z,45.27
2023-01-20T23:01:32.574Z,42.37
2023-01-20T23:04:03.360Z,42.70
2023-01-20T23:09:10.701Z,42.50
2023-01-20T23:11:40.157Z,37.87
2023-01-20T23:14:10.758Z,48.40
2023-01-20T23:16:38.584Z,40.75
2023-01-20T23:19:07.198Z,48.47
2023-01-20T23:21:35.531Z,43.57
2023-01-20T23:24:02.808Z,35.77
2023-01-20T23:26:31.075Z,41.63
2023-01-20T23:29:00.923Z,37.80
2023-01-20T23:31:33.264Z,38.75
2023-01-20T23:34:00.634Z,40.27
2023-01-20T23:36:28.028Z,46.50
2023-01-20T23:38:57.652Z,34.60
2023-01-20T23:41:25.681Z,38.03
2023-01-20T23:43:53.324Z,35.83
2023-01-20T23:46:20.958Z,37.10
2023-01-20T23:48:48.686Z,34.87
2023-01-20T23:51:16.048Z,39.97
2023-01-20T23:53:43.907Z,33.63
2023-01-20T23:56:21.027Z,35.53
2023-01-20T23:58:48.830Z,33.30
